Time;durP1;ratioP1;P1;durP2;ratioP2;P2;SDS_P1;SDS_P2;PMS_P1;PMS_P2;Temp;Humidity;BMP_temperature;BMP_pressure;BME280_temperature;BME280_humidity;BME280_pressure;Samples;Min_cycle;Max_cycle;Signal;HPM_P1;HPM_P2
2024/01/21 00:01:31;;;;;;;8.07;5.20;;;;;;;;;;5090388;28;20493;-78
2024/01/21 00:04:00;;;;;;;6.00;4.97;;;;;;;;;;5094197;28;21412;-78
2024/01/21 00:06:26;;;;;;;8.43;6.00;;;;;;;;;;5097034;28;20537;-79
2024/01/21 00:08:52;;;;;;;5.20;4.70;;;;;;;;;;5093674;28;21226;-79
2024/01/21 00:11:20;;;;;;;9.77;5.30;;;;;;;;;;5094720;28;20476;-79
2024/01/21 00:13:46;;;;;;;11.07;5.33;;;;;;;;;;5095463;28;20517;-78
2024/01/21 00:16:13;;;;;;;5.13;4.33;;;;;;;;;;5094411;28;20934;-78
2024/01/21 00:18:39;;;;;;;7.30;4.10;;;;;;;;;;5096424;28;20875;-78
2024/01/21 00:21:08;;;;;;;7.43;5.20;;;;;;;;;;5096269;28;20438;-79
2024/01/21 00:23:36;;;;;;;6.93;4.93;;;;;;;;;;5094467;28;20534;-78
2024/01/21 00:26:02;;;;;;;9.53;5.17;;;;;;;;;;5094502;28;20473;-81
2024/01/21 00:28:29;;;;;;;5.97;5.10;;;;;;;;;;5095024;28;20565;-78
2024/01/21 00:30:56;;;;;;;6.90;4.47;;;;;;;;;;5096115;28;20517;-79
2024/01/21 00:33:22;;;;;;;7.53;5.30;;;;;;;;;;5093503;28;20487;-78
2024/01/21 00:35:50;;;;;;;5.93;4.63;;;;;;;;;;5096681;28;20454;-77
2024/01/21 00:38:18;;;;;;;4.37;3.97;;;;;;;;;;5095448;28;20549;-81
2024/01/21 00:40:47;;;;;;;5.20;3.80;;;;;;;;;;5095768;28;20521;-78
2024/01/21 00:43:13;;;;;;;5.50;3.53;;;;;;;;;;5094356;28;20478;-78
2024/01/21 00:45:44;;;;;;;6.50;4.50;;;;;;;;;;5096651;28;20552;-78
2024/01/21 00:48:10;;;;;;;4.63;4.20;;;;;;;;;;5094565;28;20472;-78
2024/01/21 00:50:37;;;;;;;7.33;3.87;;;;;;;;;;5096824;28;20458;-78
2024/01/21 00:53:03;;;;;;;5.93;4.17;;;;;;;;;;5096667;28;20549;-78
2024/01/21 00:55:31;;;;;;;4.43;4.03;;;;;;;;;;5096946;28;20542;-78
2024/01/21 00:57:58;;;;;;;5.30;4.37;;;;;;;;;;5096333;28;20611;-80
2024/01/21 01:00:27;;;;;;;4.67;3.60;;;;;;;;;;5095169;28;20866;-78
2024/01/21 01:02:53;;;;;;;7.23;4.60;;;;;;;;;;5096670;28;20510;-77
2024/01/21 01:05:20;;;;;;;8.20;4.47;;;;;;;;;;5097604;28;20530;-78
2024/01/21 01:07:46;;;;;;;7.00;5.20;;;;;;;;;;5097452;28;20617;-78
2024/01/21 01:10:13;;;;;;;8.23;3.87;;;;;;;;;;5095233;28;21030;-78
2024/01/21 01:12:44;;;;;;;8.40;5.00;;;;;;;;;;5097681;28;20533;-77
2024/01/21 01:15:12;;;;;;;6.57;5.80;;;;;;;;;;5097163;28;20469;-78
2024/01/21 01:17:41;;;;;;;8.30;4.90;;;;;;;;;;5096157;28;20470;-77
2024/01/21 01:20:09;;;;;;;7.20;4.57;;;;;;;;;;5097946;28;20470;-81
2024/01/21 01:22:36;;;;;;;8.37;4.00;;;;;;;;;;5098524;28;20496;-79
2024/01/21 01:25:05;;;;;;;5.10;4.20;;;;;;;;;;5097411;28;20568;-77
2024/01/21 01:27:31;;;;;;;5.63;3.60;;;;;;;;;;5098422;28;20485;-78
2024/01/21 01:29:59;;;;;;;5.80;3.67;;;;;;;;;;5097999;28;20514;-78
2024/01/21 01:32:26;;;;;;;4.23;3.80;;;;;;;;;;5095558;28;20553;-78
2024/01/21 01:34:54;;;;;;;4.37;3.93;;;;;;;;;;5097179;28;20565;-79
2024/01/21 01:37:21;;;;;;;6.53;4.43;;;;;;;;;;5097160;28;20510;-78
2024/01/21 01:39:48;;;;;;;5.80;4.20;;;;;;;;;;5098226;28;20530;-77
2024/01/21 01:42:14;;;;;;;7.30;4.20;;;;;;;;;;5094699;28;20500;-78
2024/01/21 01:44:42;;;;;;;6.27;3.53;;;;;;;;;;5095296;28;20550;-78
2024/01/21 01:47:10;;;;;;;4.93;3.60;;;;;;;;;;5095755;28;21107;-82
2024/01/21 01:49:37;;;;;;;5.67;4.30;;;;;;;;;;5096500;28;21011;-77
2024/01/21 01:52:04;;;;;;;6.80;4.20;;;;;;;;;;5097402;28;20537;-78
2024/01/21 01:54:30;;;;;;;6.60;3.97;;;;;;;;;;5095795;28;20557;-77
2024/01/21 01:56:57;;;;;;;5.80;3.20;;;;;;;;;;5096705;28;20553;-78
2024/01/21 01:59:26;;;;;;;4.07;3.33;;;;;;;;;;5095372;28;20553;-77
2024/01/21 02:01:53;;;;;;;4.07;3.03;;;;;;;;;;5094733;28;20470;-79
2024/01/21 02:04:22;;;;;;;4.60;3.70;;;;;;;;;;5096812;28;20537;-78
2024/01/21 02:06:49;;;;;;;4.13;3.30;;;;;;;;;;5097497;28;21010;-78
2024/01/21 02:09:15;;;;;;;4.53;3.20;;;;;;;;;;5095363;28;20454;-78
2024/01/21 02:11:43;;;;;;;4.97;3.47;;;;;;;;;;5095179;28;20549;-80
2024/01/21 02:14:09;;;;;;;5.23;3.70;;;;;;;;;;5093773;28;20465;-81
2024/01/21 02:16:37;;;;;;;4.60;3.10;;;;;;;;;;5095222;28;20549;-79
2024/01/21 02:19:05;;;;;;;5.57;4.00;;;;;;;;;;5094752;28;21170;-80
2024/01/21 02:21:33;;;;;;;6.33;4.07;;;;;;;;;;5093154;28;20469;-77
2024/01/21 02:24:01;;;;;;;6.80;3.73;;;;;;;;;;5097391;28;20510;-80
2024/01/21 02:26:28;;;;;;;5.77;3.17;;;;;;;;;;5094350;28;20489;-80
2024/01/21 02:28:56;;;;;;;5.40;3.80;;;;;;;;;;5095982;28;20443;-81
2024/01/21 02:31:23;;;;;;;5.93;3.47;;;;;;;;;;5092771;28;21020;-79
2024/01/21 02:33:49;;;;;;;10.57;4.57;;;;;;;;;;5096059;28;20513;-80
2024/01/21 02:36:16;;;;;;;5.30;3.83;;;;;;;;;;5094362;28;20562;-78
2024/01/21 02:38:42;;;;;;;5.20;3.90;;;;;;;;;;5097462;28;20509;-77
2024/01/21 02:41:10;;;;;;;4.30;3.37;;;;;;;;;;5096307;28;20501;-80
2024/01/21 02:43:37;;;;;;;3.63;2.87;;;;;;;;;;5093221;28;20473;-78
2024/01/21 02:46:03;;;;;;;4.13;3.07;;;;;;;;;;5096584;28;20517;-78
2024/01/21 02:48:30;;;;;;;4.33;3.60;;;;;;;;;;5094671;28;20462;-79
2024/01/21 02:50:57;;;;;;;3.33;3.03;;;;;;;;;;5094165;28;20453;-80
2024/01/21 02:53:24;;;;;;;5.07;3.20;;;;;;;;;;5095860;28;20556;-78
2024/01/21 02:55:50;;;;;;;4.93;3.63;;;;;;;;;;5098343;28;20468;-78
2024/01/21 02:58:18;;;;;;;5.17;3.60;;;;;;;;;;5097459;28;20560;-81
2024/01/21 03:00:45;;;;;;;4.27;3.10;;;;;;;;;;5096725;28;20448;-80
2024/01/21 03:03:12;;;;;;;5.17;3.60;;;;;;;;;;5095418;28;20580;-80
2024/01/21 03:05:39;;;;;;;3.50;2.70;;;;;;;;;;5098213;28;20510;-80
2024/01/21 03:08:06;;;;;;;3.77;3.00;;;;;;;;;;5094071;28;20468;-78
2024/01/21 03:10:33;;;;;;;4.63;3.50;;;;;;;;;;5096338;28;20458;-79
2024/01/21 03:13:00;;;;;;;5.83;3.40;;;;;;;;;;5091712;28;20469;-81
2024/01/21 03:15:28;;;;;;;8.40;3.10;;;;;;;;;;5097361;28;20468;-81
2024/01/21 03:17:54;;;;;;;5.80;3.10;;;;;;;;;;5098652;28;20569;-80
2024/01/21 03:20:21;;;;;;;6.47;3.57;;;;;;;;;;5096139;28;20529;-79
2024/01/21 03:22:49;;;;;;;3.70;2.90;;;;;;;;;;5096736;28;20533;-79
2024/01/21 03:25:16;;;;;;;6.97;4.03;;;;;;;;;;5094911;28;20546;-79
2024/01/21 03:27:45;;;;;;;4.20;3.20;;;;;;;;;;5097782;28;20499;-79
2024/01/21 03:30:11;;;;;;;5.03;3.50;;;;;;;;;;5095226;28;20460;-79
2024/01/21 03:32:40;;;;;;;4.80;2.93;;;;;;;;;;5097471;28;20534;-79
2024/01/21 03:35:07;;;;;;;3.67;3.07;;;;;;;;;;5095120;28;21032;-79
2024/01/21 03:37:33;;;;;;;4.47;2.60;;;;;;;;;;5096527;28;20568;-79
2024/01/21 03:40:00;;;;;;;4.80;2.90;;;;;;;;;;5089239;28;20453;-79
2024/01/21 03:42:26;;;;;;;5.90;3.03;;;;;;;;;;5095696;28;20549;-79
2024/01/21 03:44:54;;;;;;;5.90;3.67;;;;;;;;;;5096471;28;20543;-79
2024/01/21 03:47:21;;;;;;;6.33;3.50;;;;;;;;;;5096191;28;20541;-80
2024/01/21 03:49:51;;;;;;;7.20;3.93;;;;;;;;;;5096413;28;20542;-80
2024/01/21 03:52:17;;;;;;;4.40;3.70;;;;;;;;;;5097072;28;20502;-80
2024/01/21 03:54:44;;;;;;;7.97;4.60;;;;;;;;;;5094904;28;20813;-80
2024/01/21 03:57:11;;;;;;;9.43;4.60;;;;;;;;;;5095993;28;20470;-78
2024/01/21 03:59:39;;;;;;;6.47;4.03;;;;;;;;;;5094615;28;20529;-80
2024/01/21 04:02:06;;;;;;;8.10;4.50;;;;;;;;;;5095606;28;20553;-80
2024/01/21 04:04:34;;;;;;;7.13;4.60;;;;;;;;;;5094948;28;20569;-79
2024/01/21 04:07:02;;;;;;;6.83;4.20;;;;;;;;;;5097291;28;20888;-80
2024/01/21 04:09:28;;;;;;;13.77;4.83;;;;;;;;;;5096125;28;20473;-78
2024/01/21 04:11:55;;;;;;;8.50;5.13;;;;;;;;;;5095552;28;20906;-79
2024/01/21 04:14:21;;;;;;;7.70;4.73;;;;;;;;;;5095555;28;20930;-81
2024/01/21 04:16:49;;;;;;;7.03;4.50;;;;;;;;;;5095563;28;20472;-81
2024/01/21 04:19:18;;;;;;;7.40;4.30;;;;;;;;;;5094118;28;20442;-80
2024/01/21 04:21:44;;;;;;;8.57;5.20;;;;;;;;;;5095039;28;20472;-80
2024/01/21 04:24:16;;;;;;;7.63;4.90;;;;;;;;;;5094965;28;20525;-81
2024/01/21 04:26:42;;;;;;;6.60;4.90;;;;;;;;;;5095951;28;20465;-78
2024/01/21 04:29:09;;;;;;;8.93;4.90;;;;;;;;;;5095236;28;20505;-81
2024/01/21 04:31:35;;;;;;;8.07;5.47;;;;;;;;;;5093283;28;20541;-79
2024/01/21 04:34:02;;;;;;;9.63;5.80;;;;;;;;;;5094695;28;20482;-79
2024/01/21 04:36:29;;;;;;;11.10;6.13;;;;;;;;;;5094701;28;20537;-79
2024/01/21 04:38:55;;;;;;;7.33;4.70;;;;;;;;;;5096490;28;20444;-79
2024/01/21 04:41:23;;;;;;;6.23;4.53;;;;;;;;;;5094569;28;20478;-80
2024/01/21 04:43:49;;;;;;;7.53;5.40;;;;;;;;;;5094440;28;20549;-79
2024/01/21 04:46:18;;;;;;;10.13;5.00;;;;;;;;;;5093869;28;20469;-79
2024/01/21 04:48:44;;;;;;;7.93;5.00;;;;;;;;;;5094968;28;20438;-81
2024/01/21 04:51:12;;;;;;;7.80;4.73;;;;;;;;;;5087296;28;20538;-80
2024/01/21 04:53:39;;;;;;;6.90;4.90;;;;;;;;;;5093032;28;20478;-81
2024/01/21 04:56:07;;;;;;;6.90;5.00;;;;;;;;;;5094139;28;20458;-80
2024/01/21 04:58:35;;;;;;;7.40;5.10;;;;;;;;;;5091917;28;20470;-81
2024/01/21 05:01:02;;;;;;;7.80;5.00;;;;;;;;;;5092711;28;20493;-81
2024/01/21 05:03:29;;;;;;;9.00;5.10;;;;;;;;;;5093562;28;20540;-80
2024/01/21 05:05:57;;;;;;;9.40;5.63;;;;;;;;;;5090131;28;20589;-80
2024/01/21 05:08:23;;;;;;;6.07;4.90;;;;;;;;;;5093987;28;20475;-80
2024/01/21 05:10:50;;;;;;;5.63;4.13;;;;;;;;;;5095050;28;20987;-80
2024/01/21 05:13:16;;;;;;;7.37;5.17;;;;;;;;;;5091912;28;20475;-80
2024/01/21 05:15:46;;;;;;;9.63;5.00;;;;;;;;;;5095303;28;20458;-80
2024/01/21 05:18:12;;;;;;;9.53;5.07;;;;;;;;;;5093125;28;20573;-80
2024/01/21 05:20:39;;;;;;;7.60;4.17;;;;;;;;;;5092250;28;20448;-80
2024/01/21 05:23:05;;;;;;;6.43;4.40;;;;;;;;;;5093888;28;20524;-81
2024/01/21 05:25:32;;;;;;;7.90;4.77;;;;;;;;;;5092931;28;20556;-81
2024/01/21 05:27:58;;;;;;;9.10;5.20;;;;;;;;;;5093103;28;20526;-80
2024/01/21 05:30:25;;;;;;;8.00;4.40;;;;;;;;;;5092857;28;20441;-80
2024/01/21 05:32:53;;;;;;;6.90;4.67;;;;;;;;;;5092579;28;20545;-80
2024/01/21 05:35:19;;;;;;;7.00;4.73;;;;;;;;;;5094563;28;20542;-80
2024/01/21 05:37:50;;;;;;;9.47;4.60;;;;;;;;;;5092381;28;20470;-80
2024/01/21 05:40:16;;;;;;;4.77;3.50;;;;;;;;;;5093943;28;20465;-78
2024/01/21 05:42:45;;;;;;;6.23;3.80;;;;;;;;;;5093111;28;20545;-80
2024/01/21 05:45:11;;;;;;;5.80;4.50;;;;;;;;;;5091831;28;20481;-79
2024/01/21 05:47:39;;;;;;;7.60;4.60;;;;;;;;;;5092547;28;20561;-79
2024/01/21 05:50:08;;;;;;;9.43;4.30;;;;;;;;;;5093314;28;20447;-81
2024/01/21 05:52:36;;;;;;;8.70;4.90;;;;;;;;;;5093529;28;20549;-81
2024/01/21 05:55:06;;;;;;;6.77;4.40;;;;;;;;;;5093861;28;20503;-81
2024/01/21 05:57:33;;;;;;;5.50;4.20;;;;;;;;;;5095760;28;20969;-81
2024/01/21 06:00:00;;;;;;;5.90;3.97;;;;;;;;;;5091981;28;20518;-80
2024/01/21 06:02:27;;;;;;;7.57;4.30;;;;;;;;;;5094016;28;20476;-80
2024/01/21 06:04:54;;;;;;;4.60;3.93;;;;;;;;;;5087474;28;20465;-80
2024/01/21 06:07:23;;;;;;;7.47;4.80;;;;;;;;;;5093441;28;20557;-80
2024/01/21 06:09:50;;;;;;;6.70;4.20;;;;;;;;;;5090782;28;20453;-80
2024/01/21 06:12:16;;;;;;;8.20;3.57;;;;;;;;;;5092707;28;20529;-79
2024/01/21 06:14:44;;;;;;;8.00;4.50;;;;;;;;;;5091367;28;20485;-80
2024/01/21 06:17:10;;;;;;;8.57;4.07;;;;;;;;;;5093623;28;20470;-79
2024/01/21 06:19:37;;;;;;;9.90;4.80;;;;;;;;;;5092516;28;20990;-79
2024/01/21 06:22:03;;;;;;;5.07;3.47;;;;;;;;;;5095225;28;20470;-78
2024/01/21 06:24:34;;;;;;;6.47;4.83;;;;;;;;;;5095438;28;20469;-81
2024/01/21 06:27:00;;;;;;;5.13;4.23;;;;;;;;;;5093718;28;20500;-80
2024/01/21 06:29:27;;;;;;;6.93;4.17;;;;;;;;;;5091347;28;20506;-80
2024/01/21 06:31:53;;;;;;;4.67;3.77;;;;;;;;;;5092609;28;20466;-81
2024/01/21 06:34:20;;;;;;;6.13;4.53;;;;;;;;;;5093192;28;20608;-80
2024/01/21 06:36:47;;;;;;;8.43;4.30;;;;;;;;;;5094017;28;20560;-80
2024/01/21 06:39:14;;;;;;;7.80;4.20;;;;;;;;;;5092722;28;20502;-80
2024/01/21 06:41:42;;;;;;;6.47;4.67;;;;;;;;;;5095094;28;20468;-80
2024/01/21 06:44:09;;;;;;;6.07;4.27;;;;;;;;;;5092160;28;20485;-80
2024/01/21 06:46:37;;;;;;;5.70;4.13;;;;;;;;;;5092930;28;20560;-80
2024/01/21 06:49:04;;;;;;;6.70;4.47;;;;;;;;;;5091484;28;20544;-80
2024/01/21 06:51:42;;;;;;;5.30;4.10;;;;;;;;;;5093577;28;20932;-80
2024/01/21 06:54:09;;;;;;;5.63;4.20;;;;;;;;;;5094508;28;20465;-79
2024/01/21 06:56:35;;;;;;;6.23;3.77;;;;;;;;;;5094343;28;20529;-79
2024/01/21 06:59:03;;;;;;;7.50;4.60;;;;;;;;;;5093739;28;20441;-80
2024/01/21 07:01:34;;;;;;;7.50;4.50;;;;;;;;;;5091060;28;20461;-80
2024/01/21 07:04:00;;;;;;;8.00;4.20;;;;;;;;;;5094102;28;20436;-80
2024/01/21 07:06:27;;;;;;;6.83;4.17;;;;;;;;;;5090660;28;20541;-80
2024/01/21 07:08:55;;;;;;;6.67;4.20;;;;;;;;;;5092196;28;20464;-80
2024/01/21 07:11:21;;;;;;;5.50;3.87;;;;;;;;;;5091850;28;20450;-79
2024/01/21 07:13:48;;;;;;;6.93;4.33;;;;;;;;;;5093360;28;20546;-79
2024/01/21 07:16:19;;;;;;;7.30;4.43;;;;;;;;;;5090733;28;20976;-80
2024/01/21 07:18:45;;;;;;;5.67;3.77;;;;;;;;;;5092361;28;20832;-79
2024/01/21 07:21:12;;;;;;;6.90;4.00;;;;;;;;;;5091253;28;20529;-80
2024/01/21 07:23:39;;;;;;;5.70;3.87;;;;;;;;;;5093564;28;20434;-80
2024/01/21 07:26:06;;;;;;;5.23;3.43;;;;;;;;;;5090974;28;20478;-80
2024/01/21 07:28:32;;;;;;;5.27;3.70;;;;;;;;;;5092811;28;20512;-79
2024/01/21 07:30:59;;;;;;;7.60;4.33;;;;;;;;;;5092086;28;20452;-80
2024/01/21 07:33:27;;;;;;;4.90;3.90;;;;;;;;;;5093060;28;20589;-79
2024/01/21 07:35:53;;;;;;;4.80;3.63;;;;;;;;;;5090003;28;20559;-79
2024/01/21 07:38:20;;;;;;;5.93;3.60;;;;;;;;;;5093701;28;20478;-80
2024/01/21 07:40:47;;;;;;;6.53;4.47;;;;;;;;;;5095825;28;20434;-80
2024/01/21 07:43:14;;;;;;;6.20;3.77;;;;;;;;;;5097284;28;20458;-80
2024/01/21 07:45:40;;;;;;;7.23;3.73;;;;;;;;;;5095528;28;20464;-80
2024/01/21 07:48:07;;;;;;;4.93;3.60;;;;;;;;;;5096602;28;20545;-80
2024/01/21 07:50:35;;;;;;;3.67;2.80;;;;;;;;;;5093962;28;20567;-81
2024/01/21 07:53:02;;;;;;;4.70;2.87;;;;;;;;;;5096005;28;20545;-80
2024/01/21 07:55:28;;;;;;;4.70;3.50;;;;;;;;;;5096697;28;20537;-80
2024/01/21 07:57:55;;;;;;;5.03;2.90;;;;;;;;;;5097352;28;20544;-79
2024/01/21 08:00:22;;;;;;;6.23;4.47;;;;;;;;;;5094312;28;20450;-80
2024/01/21 08:02:49;;;;;;;5.63;3.80;;;;;;;;;;5094418;28;20481;-80
2024/01/21 08:05:16;;;;;;;5.03;3.47;;;;;;;;;;5094881;28;20486;-80
2024/01/21 08:07:44;;;;;;;8.20;3.80;;;;;;;;;;5097348;28;20553;-80
2024/01/21 08:10:10;;;;;;;3.90;3.40;;;;;;;;;;5095081;28;20434;-81
2024/01/21 08:12:37;;;;;;;4.23;3.00;;;;;;;;;;5091447;28;20552;-80
2024/01/21 08:15:04;;;;;;;4.20;3.30;;;;;;;;;;5092474;28;20485;-80
2024/01/21 08:17:30;;;;;;;4.70;3.30;;;;;;;;;;5092465;28;21098;-80
2024/01/21 08:19:57;;;;;;;4.50;3.37;;;;;;;;;;5092499;28;20430;-80
2024/01/21 08:22:25;;;;;;;6.00;3.87;;;;;;;;;;5092809;28;20470;-80
2024/01/21 08:24:54;;;;;;;4.50;3.60;;;;;;;;;;5095940;28;20566;-79
2024/01/21 08:27:21;;;;;;;8.17;4.50;;;;;;;;;;5092323;28;20474;-80
2024/01/21 08:29:47;;;;;;;6.30;4.40;;;;;;;;;;5092483;28;20522;-80
2024/01/21 08:32:14;;;;;;;4.60;3.33;;;;;;;;;;5092928;28;20477;-80
2024/01/21 08:34:40;;;;;;;4.57;3.10;;;;;;;;;;5094300;28;20562;-80
2024/01/21 08:37:08;;;;;;;4.37;3.30;;;;;;;;;;5093343;28;20470;-79
2024/01/21 08:39:34;;;;;;;4.93;3.87;;;;;;;;;;5095228;28;20530;-79
2024/01/21 08:42:03;;;;;;;6.57;3.77;;;;;;;;;;5092911;28;20845;-80
2024/01/21 08:44:29;;;;;;;5.43;3.30;;;;;;;;;;5092498;28;20459;-80
2024/01/21 08:46:57;;;;;;;9.27;3.00;;;;;;;;;;5092465;28;20567;-79
2024/01/21 08:49:26;;;;;;;4.20;3.33;;;;;;;;;;5089794;28;20454;-80
2024/01/21 08:51:54;;;;;;;5.70;3.00;;;;;;;;;;5089948;28;20499;-80
2024/01/21 08:54:21;;;;;;;3.63;3.20;;;;;;;;;;5089134;28;20492;-80
2024/01/21 08:56:48;;;;;;;4.80;2.73;;;;;;;;;;5093262;28;20553;-80
2024/01/21 08:59:16;;;;;;;4.20;3.50;;;;;;;;;;5089317;28;20887;-79
2024/01/21 09:01:42;;;;;;;2.90;2.50;;;;;;;;;;5090130;28;20480;-80
2024/01/21 09:04:10;;;;;;;4.50;3.37;;;;;;;;;;5088212;28;20434;-79
2024/01/21 09:06:41;;;;;;;3.33;2.23;;;;;;;;;;5083065;28;21065;-79
2024/01/21 09:09:11;;;;;;;3.70;2.97;;;;;;;;;;5087018;28;20526;-79
2024/01/21 09:11:38;;;;;;;3.20;2.37;;;;;;;;;;5083794;28;20461;-79
2024/01/21 09:14:06;;;;;;;4.43;2.30;;;;;;;;;;5086487;28;20475;-80
2024/01/21 09:16:34;;;;;;;3.50;2.53;;;;;;;;;;5080888;28;20474;-80
2024/01/21 09:19:01;;;;;;;2.83;2.27;;;;;;;;;;5089130;28;20449;-80
2024/01/21 09:21:27;;;;;;;5.40;2.90;;;;;;;;;;5088725;28;20919;-79
2024/01/21 09:23:54;;;;;;;7.57;2.83;;;;;;;;;;5086072;28;20991;-80
2024/01/21 09:26:21;;;;;;;3.03;2.23;;;;;;;;;;5088225;28;20485;-80
2024/01/21 09:28:47;;;;;;;5.50;3.63;;;;;;;;;;5086367;28;20438;-79
2024/01/21 09:31:14;;;;;;;4.47;4.00;;;;;;;;;;5088178;28;20861;-80
2024/01/21 09:33:42;;;;;;;6.13;2.57;;;;;;;;;;5088348;28;20465;-80
2024/01/21 09:36:08;;;;;;;2.77;2.33;;;;;;;;;;5087948;28;20844;-80
2024/01/21 09:38:37;;;;;;;3.23;2.30;;;;;;;;;;5088263;28;20529;-80
2024/01/21 09:41:08;;;;;;;4.20;3.03;;;;;;;;;;5088135;28;21472;-79
2024/01/21 09:43:40;;;;;;;7.93;2.97;;;;;;;;;;5088025;28;20442;-80
2024/01/21 09:46:07;;;;;;;4.13;3.30;;;;;;;;;;5086899;28;20898;-80
2024/01/21 09:48:35;;;;;;;4.47;2.60;;;;;;;;;;5089073;28;20817;-80
2024/01/21 09:51:06;;;;;;;5.20;3.33;;;;;;;;;;5082809;28;20473;-80
2024/01/21 09:53:33;;;;;;;3.60;2.90;;;;;;;;;;5089458;28;20465;-80
2024/01/21 09:56:05;;;;;;;53.40;29.73;;;;;;;;;;5087680;28;20992;-80
2024/01/21 09:58:34;;;;;;;8.20;5.87;;;;;;;;;;5087504;28;20458;-80
2024/01/21 10:01:01;;;;;;;4.00;3.57;;;;;;;;;;5088136;28;20537;-79
2024/01/21 10:03:27;;;;;;;3.93;3.17;;;;;;;;;;5085936;28;20462;-80
2024/01/21 10:05:54;;;;;;;5.50;3.37;;;;;;;;;;5088305;28;20460;-79
2024/01/21 10:08:22;;;;;;;4.60;4.17;;;;;;;;;;5088697;28;20453;-80
2024/01/21 10:10:48;;;;;;;4.37;3.23;;;;;;;;;;5087030;28;20448;-80
2024/01/21 10:13:15;;;;;;;6.00;4.03;;;;;;;;;;5086781;28;20516;-80
2024/01/21 10:15:45;;;;;;;5.47;4.60;;;;;;;;;;5087572;28;20568;-80
2024/01/21 10:18:11;;;;;;;7.53;4.57;;;;;;;;;;5089712;28;20445;-80
2024/01/21 10:20:38;;;;;;;7.37;6.50;;;;;;;;;;5084962;28;20541;-79
2024/01/21 10:23:11;;;;;;;13.60;9.93;;;;;;;;;;5090538;28;20444;-81
2024/01/21 10:25:43;;;;;;;6.40;4.40;;;;;;;;;;5087872;28;20450;-79
2024/01/21 10:28:11;;;;;;;9.03;6.20;;;;;;;;;;5086453;28;20534;-80
2024/01/21 10:30:38;;;;;;;6.10;4.00;;;;;;;;;;5086248;28;20442;-79
2024/01/21 10:33:06;;;;;;;4.17;3.60;;;;;;;;;;5087409;28;20455;-80
2024/01/21 10:35:32;;;;;;;4.93;3.70;;;;;;;;;;5086348;28;20515;-80
2024/01/21 10:38:02;;;;;;;17.30;12.67;;;;;;;;;;5087720;28;20847;-80
2024/01/21 10:40:28;;;;;;;4.43;3.43;;;;;;;;;;5088849;28;20446;-79
2024/01/21 10:42:59;;;;;;;11.03;7.60;;;;;;;;;;5086201;28;20470;-80
2024/01/21 10:45:25;;;;;;;12.80;10.87;;;;;;;;;;5087824;28;20977;-80
2024/01/21 10:47:52;;;;;;;11.67;7.53;;;;;;;;;;5087509;28;20470;-81
2024/01/21 10:50:20;;;;;;;10.67;7.30;;;;;;;;;;5087069;28;20444;-80
2024/01/21 10:52:46;;;;;;;6.20;4.70;;;;;;;;;;5084296;28;20470;-80
2024/01/21 10:55:13;;;;;;;5.30;4.20;;;;;;;;;;5083770;28;20481;-80
2024/01/21 10:57:39;;;;;;;16.77;12.10;;;;;;;;;;5085109;28;21003;-80
2024/01/21 11:00:09;;;;;;;9.67;5.83;;;;;;;;;;5085752;28;20472;-79
2024/01/21 11:02:36;;;;;;;8.33;5.43;;;;;;;;;;5086228;28;20461;-81
2024/01/21 11:05:03;;;;;;;10.40;6.67;;;;;;;;;;5086735;28;20450;-80
2024/01/21 11:07:31;;;;;;;7.47;4.83;;;;;;;;;;5084883;28;20858;-80
2024/01/21 11:09:57;;;;;;;19.33;10.20;;;;;;;;;;5085283;28;20481;-80
2024/01/21 11:12:24;;;;;;;20.10;9.70;;;;;;;;;;5084357;28;20520;-80
2024/01/21 11:14:52;;;;;;;24.50;16.73;;;;;;;;;;5088352;28;20486;-79
2024/01/21 11:17:22;;;;;;;14.43;8.53;;;;;;;;;;5090819;28;20500;-79
2024/01/21 11:19:51;;;;;;;40.17;18.60;;;;;;;;;;5090759;28;20461;-80
2024/01/21 11:22:20;;;;;;;10.50;7.03;;;;;;;;;;5088608;28;20474;-80
2024/01/21 11:24:48;;;;;;;21.00;7.87;;;;;;;;;;5091498;28;20466;-79
2024/01/21 11:27:17;;;;;;;8.67;5.90;;;;;;;;;;5089247;28;21039;-80
2024/01/21 11:29:46;;;;;;;31.07;10.43;;;;;;;;;;5091134;28;20531;-81
2024/01/21 11:32:12;;;;;;;10.37;6.47;;;;;;;;;;5089893;28;20465;-79
2024/01/21 11:34:43;;;;;;;87.27;40.37;;;;;;;;;;5091038;28;21264;-80
2024/01/21 11:37:10;;;;;;;8.87;5.47;;;;;;;;;;5091168;28;20461;-79
2024/01/21 11:39:36;;;;;;;10.53;6.20;;;;;;;;;;5090022;28;20849;-80
2024/01/21 11:42:03;;;;;;;6.90;5.20;;;;;;;;;;5089413;28;20462;-79
2024/01/21 11:44:31;;;;;;;11.63;6.57;;;;;;;;;;5090949;28;20466;-80
2024/01/21 11:46:59;;;;;;;9.50;6.00;;;;;;;;;;5088715;28;20470;-80
2024/01/21 11:49:26;;;;;;;10.10;6.73;;;;;;;;;;5090641;28;20874;-79
2024/01/21 11:51:54;;;;;;;9.90;7.30;;;;;;;;;;5090137;28;20470;-79
2024/01/21 11:54:21;;;;;;;9.30;6.07;;;;;;;;;;5089092;28;20534;-79
2024/01/21 11:56:48;;;;;;;11.43;6.83;;;;;;;;;;5087371;28;20494;-79
2024/01/21 11:59:15;;;;;;;9.90;6.20;;;;;;;;;;5088795;28;20945;-79
2024/01/21 12:01:41;;;;;;;11.40;5.93;;;;;;;;;;5088535;28;20462;-79
2024/01/21 12:04:08;;;;;;;13.10;6.60;;;;;;;;;;5090356;28;20442;-79
2024/01/21 12:06:36;;;;;;;8.90;5.77;;;;;;;;;;5089175;28;21077;-80
2024/01/21 12:09:04;;;;;;;14.63;8.20;;;;;;;;;;5089305;28;20448;-79
2024/01/21 12:11:32;;;;;;;17.57;9.40;;;;;;;;;;5088452;28;20470;-79
2024/01/21 12:13:59;;;;;;;14.70;8.70;;;;;;;;;;5089398;28;20476;-79
2024/01/21 12:16:25;;;;;;;11.63;7.70;;;;;;;;;;5087082;28;20474;-80
2024/01/21 12:18:52;;;;;;;10.33;7.10;;;;;;;;;;5089201;28;20443;-79
2024/01/21 12:21:18;;;;;;;12.73;7.03;;;;;;;;;;5086832;28;20510;-80
2024/01/21 12:23:45;;;;;;;7.83;5.20;;;;;;;;;;5086127;28;20450;-79
2024/01/21 12:26:17;;;;;;;10.30;6.03;;;;;;;;;;5087243;28;20568;-79
2024/01/21 12:28:56;;;;;;;6.50;4.80;;;;;;;;;;5089357;28;20447;-79
2024/01/21 12:31:25;;;;;;;14.70;6.70;;;;;;;;;;5088105;28;20562;-78
2024/01/21 12:33:52;;;;;;;9.70;6.10;;;;;;;;;;5089380;28;20448;-78
2024/01/21 12:36:18;;;;;;;9.97;6.83;;;;;;;;;;5085504;28;20469;-78
2024/01/21 12:38:45;;;;;;;7.40;5.70;;;;;;;;;;5089089;28;20457;-79
2024/01/21 12:41:11;;;;;;;8.10;5.40;;;;;;;;;;5086347;28;21000;-79
2024/01/21 12:43:39;;;;;;;11.73;7.10;;;;;;;;;;5088350;28;20945;-78
2024/01/21 12:46:06;;;;;;;6.93;6.23;;;;;;;;;;5087221;28;20842;-79
2024/01/21 12:48:32;;;;;;;11.93;5.43;;;;;;;;;;5086964;28;20458;-78
2024/01/21 12:50:59;;;;;;;7.97;5.30;;;;;;;;;;5089053;28;20462;-79
2024/01/21 12:53:27;;;;;;;9.93;6.30;;;;;;;;;;5087547;28;20439;-79
2024/01/21 12:56:03;;;;;;;7.70;5.53;;;;;;;;;;5087591;28;20738;-79
2024/01/21 12:58:33;;;;;;;8.60;5.80;;;;;;;;;;5091301;28;20519;-78
2024/01/21 13:01:00;;;;;;;8.47;5.47;;;;;;;;;;5088886;28;20494;-78
2024/01/21 13:03:28;;;;;;;7.57;5.63;;;;;;;;;;5087892;28;20524;-78
2024/01/21 13:05:55;;;;;;;12.40;6.47;;;;;;;;;;5088071;28;20983;-77
2024/01/21 13:08:22;;;;;;;7.37;5.40;;;;;;;;;;5088895;28;20446;-77
2024/01/21 13:10:49;;;;;;;7.40;5.60;;;;;;;;;;5086632;28;20442;-77
2024/01/21 13:13:16;;;;;;;8.17;5.80;;;;;;;;;;5087125;28;20452;-78
2024/01/21 13:15:42;;;;;;;8.70;5.93;;;;;;;;;;5087311;28;20561;-78
2024/01/21 13:18:10;;;;;;;9.33;6.60;;;;;;;;;;5087637;28;20949;-78
2024/01/21 13:20:37;;;;;;;7.70;5.70;;;;;;;;;;5083463;28;20455;-78
2024/01/21 13:23:05;;;;;;;9.07;6.57;;;;;;;;;;5088044;28;20469;-77
2024/01/21 13:25:33;;;;;;;7.80;7.00;;;;;;;;;;5086726;28;21050;-78
2024/01/21 13:28:14;;;;;;;12.00;8.23;;;;;;;;;;5086792;28;20469;-78
2024/01/21 13:30:46;;;;;;;13.50;10.80;;;;;;;;;;5087971;28;20442;-77
2024/01/21 13:33:26;;;;;;;8.67;6.60;;;;;;;;;;5086569;28;20461;-78
2024/01/21 13:35:57;;;;;;;8.50;6.87;;;;;;;;;;5086605;28;21065;-77
2024/01/21 13:38:26;;;;;;;8.43;6.60;;;;;;;;;;5081275;28;20459;-78
2024/01/21 13:40:52;;;;;;;10.63;6.83;;;;;;;;;;5085410;28;20446;-77
2024/01/21 13:43:19;;;;;;;9.50;6.67;;;;;;;;;;5084358;28;20462;-77
2024/01/21 13:45:47;;;;;;;13.20;7.27;;;;;;;;;;5086922;28;20959;-77
2024/01/21 13:48:14;;;;;;;9.20;7.37;;;;;;;;;;5085625;28;20548;-77
2024/01/21 13:50:42;;;;;;;10.37;7.10;;;;;;;;;;5087070;28;20442;-77
2024/01/21 13:53:08;;;;;;;9.03;6.40;;;;;;;;;;5087731;28;20445;-78
2024/01/21 13:55:37;;;;;;;34.03;7.57;;;;;;;;;;5085059;28;20577;-77
2024/01/21 13:58:05;;;;;;;9.47;6.97;;;;;;;;;;5086446;28;20458;-77
2024/01/21 14:00:32;;;;;;;9.40;6.00;;;;;;;;;;5085126;28;20970;-77
2024/01/21 14:02:59;;;;;;;9.17;6.07;;;;;;;;;;5086294;28;20478;-78
2024/01/21 14:05:26;;;;;;;14.27;9.23;;;;;;;;;;5086215;28;20489;-77
2024/01/21 14:07:54;;;;;;;9.77;5.93;;;;;;;;;;5086174;28;20468;-78
2024/01/21 14:10:24;;;;;;;12.37;7.43;;;;;;;;;;5084853;28;20441;-78
2024/01/21 14:12:51;;;;;;;10.20;7.57;;;;;;;;;;5089718;28;20470;-79
2024/01/21 14:15:18;;;;;;;18.37;9.53;;;;;;;;;;5085821;28;20469;-78
2024/01/21 14:17:45;;;;;;;10.20;6.87;;;;;;;;;;5086030;28;20468;-80
2024/01/21 14:20:13;;;;;;;8.10;6.67;;;;;;;;;;5086038;28;20438;-79
2024/01/21 14:22:40;;;;;;;15.17;9.40;;;;;;;;;;5086783;28;20835;-79
2024/01/21 14:25:19;;;;;;;14.00;9.93;;;;;;;;;;5087239;28;20466;-79
2024/01/21 14:27:45;;;;;;;14.13;7.60;;;;;;;;;;5087076;28;20850;-79
2024/01/21 14:30:16;;;;;;;12.20;7.53;;;;;;;;;;5086643;28;20441;-79
2024/01/21 14:32:43;;;;;;;11.87;7.80;;;;;;;;;;5078078;28;20466;-79
2024/01/21 14:35:13;;;;;;;12.83;8.70;;;;;;;;;;5085926;28;20492;-79
2024/01/21 14:37:40;;;;;;;12.43;9.00;;;;;;;;;;5086982;28;20466;-78
2024/01/21 14:40:07;;;;;;;11.93;8.87;;;;;;;;;;5087220;28;20549;-79
2024/01/21 14:42:35;;;;;;;13.07;8.30;;;;;;;;;;5080028;28;20482;-79